Lemoore Naval Air Station (Reeves Field) Airport
KNLC : now visible

Airfield :











YOU CAN JOIN US ON...

 
LOGIN :

Register | Disclaimer

   EN    FR    IT 

 









Legend :    VFR   Marginal VFR   IFR   Intensive IFR   Very Intensive IFR
Visi :
Ceiling :
>= 8 km
>= 3000ft
5 to 8 km
1000 to 3000 ft
1500m to 5 km
500 to 1000 ft
800 to 1500m
200 to 500 ft
< 800m
< 200 ft
Symbols :   Thunderstorms  Fog  Heavy snow  Heavy precipitations  Wind > 20 kt






- Airport Elevation : 232 ft


KNLC - Lemoore Naval Air Station (Reeves Field)

CURRENT METAR :
  • 110456Z 13005KT 1/4SM FG VV002 09/08 A3026 RMK AO2 TWR VIS 1/4 SLP249 RH/100 T00890083 RVRNO

EXPIRED METARs :
  • 110356Z 17004KT 1/4SM FG VV002 09/09 A3025 RMK AO2 SLP247 RH/96 T00890089 RVRNO
  • 110311Z 16006KT 1/4SM FG VV002 09/09 A3024 RMK AO2 T00890089 RVRNO
  • 110256Z 15008KT 1/2SM BR VV002 09/09 A3024 RMK AO2 SFC VIS 1 SLP241 RH/100 T00890089 50002 RVRNO
  • 110235Z 15007KT 1/2SM BR OVC002 09/09 A3023 RMK AO2 SFC VIS 1 RH/96 T00940089 RVRNO
  • 110156Z 18005KT 1SM BR OVC003 09/09 A3024 RMK AO2 SFC VIS 2 SLP241 RH/93 T00940089
  • 110153Z 18004KT 1SM BR OVC003 09/09 A3024 RMK AO2 SFC VIS 2 RH/93

TAF AMD TAF KNLC
Valid from the 11 at 01:00 until the 11 at 23:00 UTC


1101/1123 VRB05KT 1600 BR OVC003 QNH3018INS
TEMPO 1101/1107 0400 FG VV001
FM110700 VRB04KT 0400 FG VV001 QNH3020INS T07/1114Z T15/1123Z AMD 0145 FS30012



MET'MAP, your aeronautical weather chart ! - Copyright ORBIFLY December 2007 - Disclaimer

ORBIFLY MET'MAP TEAM :

Programming & Development : Alexandra Zaïnal
Concept & original design : Baudouin d'Aumeries
Assistance for programming : Marc-Olivier Méhu
Technical & hardware support : Manuel Goepfert

Contact : metmap@orbifly.com




SOURCES & CREDITS :

   NOAA       Earth
Advisory